Valley Stream, NY (11581)

8:22 AM EDT on June 23, 2017 (GMT -0400)
Valley Stream | | Change Station
Active Advisory: Coastal Flood Statement Active Notice: Coastal Flood Statement

Elev 21 ft 40.66 °N, 73.69 °W | Updated 2 days ago

Mostly Cloudy
Mostly Cloudy
74.1 °F
Feels Like 74 °F
N
5.3
Wind Variable Wind from SW

Today
High -- | Low -- °F
--% Chance of Precip.
Yesterday
High -- | Low -- °F
Precip. -- in
Pressure 29.84 in
Visibility 8.0 miles
Clouds Few 14000 ft
Scattered Clouds 21000 ft
Mostly Cloudy 26000 ft
Heat Index 74 °F
Dew Point 69 °F
Humidity 84%
Rainfall 0.00 in
Snow Depth Not available.
5:24 AM 8:29 PM
Waning Crescent, 1% visible
METAR KJFK 231151Z 19007KT 8SM FEW140 SCT210 BKN260 24/23 A2984 RMK AO2 SLP104 T02390228 10244 20217 50001
Pressure 29.84 in
Visibility 8.0 miles
Clouds Few 14000 ft
Scattered Clouds 21000 ft
Mostly Cloudy 26000 ft
Heat Index 74 °F
Dew Point 69 °F
Humidity 84%
Rainfall 0.00 in
Snow Depth Not available.
5:24 AM 8:29 PM
Waning Crescent, 1% visible
METAR KJFK 231151Z 19007KT 8SM FEW140 SCT210 BKN260 24/23 A2984 RMK AO2 SLP104 T02390228 10244 20217 50001

Get Your Daily Forecast Email!

Thanks for signing up!

Be on the lookout for a verification email in your inbox.

You'll start receiving severe weather alerts in your inbox..

×

10-Day Weather Forecast

Almanac

Astronomy

Jun. 23, 2017 Rise Set
Actual Time
Civil Twilight
Nautical Twilight
Astronomical Twilight
Moon
Length of Visible Light
Length of Day
Tomorrow will be .
, % of the Moon is Illuminated

Today's Extremes

State Highs State Lows

Community

WunderPhotos

Category 6

Welcome to Category 6. This is the collective home for Weather Underground's featured writeups by Dr. Jeff Masters (right), Bob Henson (left), Chris Burt, and other regular contributors.

Nearby

Air Quality

  Air Quality AQ Index Pollutant
Not available.

Snow Depth

Station Depth Elevation

Earthquake Activity

City Distance Mag. Time & Date
Minimum magnitude displayed is 2.5.

Coastal Water Temperatures

Place Temperature

Stations

Nearby Weather Stations

Station Location Temp. Windchill Dew Point Humidity Wind Precip. Elev Updated Type
                   

Watches & Warnings

Coastal Flood Statement
Issued: 4:02 AM EDT Jun. 23, 2017 – National Weather Service

* locations... along the South Shore bays of New York City and
western Long Island.

* Positive tidal departures... 1/2 to 1 1/2 ft.

* Timing... times of high tide between 8 PM and 11 PM.

* Impacts... brief and minor flooding of the most vulnerable
shoreline and Waterfront roads and properties.